createdAt,value
2023-05-24T00:01:02.593Z,100.00
2023-05-24T00:03:35.067Z,100.00
2023-05-24T00:06:03.904Z,100.00
2023-05-24T00:08:31.911Z,100.00
2023-05-24T00:11:00.010Z,100.00
2023-05-24T00:13:29.179Z,100.00
2023-05-24T00:15:57.427Z,100.00
2023-05-24T00:18:26.827Z,100.00
2023-05-24T00:20:57.174Z,100.00
2023-05-24T00:23:25.510Z,100.00
2023-05-24T00:25:54.686Z,100.00
2023-05-24T00:28:22.856Z,100.00
2023-05-24T00:30:51.194Z,100.00
2023-05-24T00:33:23.360Z,100.00
2023-05-24T00:35:56.440Z,100.00
2023-05-24T00:38:26.442Z,100.00
2023-05-24T00:40:56.391Z,100.00
2023-05-24T00:43:25.130Z,100.00
2023-05-24T00:46:15.197Z,100.00
2023-05-24T00:48:46.621Z,100.00
2023-05-24T00:51:16.614Z,100.00
2023-05-24T00:53:49.223Z,100.00
2023-05-24T00:56:18.544Z,100.00
2023-05-24T00:58:46.801Z,100.00
2023-05-24T01:01:15.378Z,100.00
2023-05-24T01:03:44.290Z,100.00
2023-05-24T01:06:16.003Z,100.00
2023-05-24T01:09:02.729Z,100.00
2023-05-24T01:11:45.258Z,100.00
2023-05-24T01:14:23.840Z,100.00
2023-05-24T01:16:58.055Z,100.00
2023-05-24T01:19:51.689Z,100.00
2023-05-24T01:22:55.931Z,100.00
2023-05-24T01:25:41.749Z,100.00
2023-05-24T01:28:14.921Z,100.00
2023-05-24T01:30:44.254Z,100.00
2023-05-24T01:33:15.568Z,100.00
2023-05-24T01:35:43.521Z,100.00
2023-05-24T01:38:15.661Z,100.00
2023-05-24T01:40:44.752Z,100.00
2023-05-24T01:43:19.878Z,100.00
2023-05-24T01:46:03.191Z,100.00
2023-05-24T01:48:39.390Z,100.00
2023-05-24T01:51:11.729Z,100.00
2023-05-24T01:53:46.614Z,100.00
2023-05-24T01:56:16.956Z,100.00
2023-05-24T01:58:48.529Z,100.00
2023-05-24T02:01:16.798Z,100.00
2023-05-24T02:03:45.613Z,100.00
2023-05-24T02:06:17.468Z,100.00
2023-05-24T02:08:46.672Z,100.00
2023-05-24T02:11:14.853Z,100.00
2023-05-24T02:13:45.042Z,100.00
2023-05-24T02:16:14.490Z,100.00
2023-05-24T02:18:46.672Z,100.00
2023-05-24T02:21:15.496Z,100.00
2023-05-24T02:23:44.629Z,100.00
2023-05-24T02:26:13.819Z,100.00
2023-05-24T02:28:44.276Z,100.00
2023-05-24T02:31:14.907Z,100.00
2023-05-24T02:33:43.523Z,100.00
2023-05-24T02:36:11.691Z,100.00
2023-05-24T02:38:40.402Z,100.00
2023-05-24T02:41:09.164Z,100.00
2023-05-24T02:43:37.796Z,100.00
2023-05-24T02:46:06.082Z,100.00
2023-05-24T02:48:36.703Z,100.00
2023-05-24T02:51:06.616Z,100.00
2023-05-24T02:53:35.453Z,100.00
2023-05-24T02:56:05.862Z,100.00
2023-05-24T02:58:34.035Z,100.00
2023-05-24T03:01:02.659Z,100.00
2023-05-24T03:03:31.001Z,100.00
2023-05-24T03:06:00.860Z,100.00
2023-05-24T03:08:29.059Z,100.00
2023-05-24T03:10:57.358Z,100.00
2023-05-24T03:13:25.988Z,100.00
2023-05-24T03:15:54.481Z,100.00
2023-05-24T03:18:23.070Z,100.00
2023-05-24T03:20:52.337Z,100.00
2023-05-24T03:23:21.560Z,100.00
2023-05-24T03:25:50.561Z,100.00
2023-05-24T03:28:19.020Z,100.00
2023-05-24T03:30:47.485Z,100.00
2023-05-24T03:33:16.196Z,100.00
2023-05-24T03:35:44.661Z,100.00
2023-05-24T03:38:13.298Z,100.00
2023-05-24T03:40:46.638Z,100.00
2023-05-24T03:43:18.848Z,100.00
2023-05-24T03:45:54.803Z,100.00
2023-05-24T03:48:26.152Z,100.00
2023-05-24T03:50:54.941Z,100.00
2023-05-24T03:53:23.438Z,100.00
2023-05-24T03:55:53.187Z,100.00
2023-05-24T03:58:23.534Z,100.00
2023-05-24T04:00:52.462Z,100.00
2023-05-24T04:03:21.364Z,100.00
2023-05-24T04:05:50.768Z,100.00
2023-05-24T04:08:18.742Z,100.00
2023-05-24T04:10:46.877Z,100.00
2023-05-24T04:13:16.659Z,100.00
2023-05-24T04:15:44.721Z,100.00
2023-05-24T04:18:13.133Z,100.00
2023-05-24T04:20:42.086Z,100.00
2023-05-24T04:23:12.467Z,100.00
2023-05-24T04:25:42.466Z,100.00
2023-05-24T04:28:10.645Z,100.00
2023-05-24T04:30:40.542Z,100.00
2023-05-24T04:33:08.767Z,100.00
2023-05-24T04:35:38.202Z,100.00
2023-05-24T04:38:06.244Z,100.00
2023-05-24T04:40:35.483Z,100.00
2023-05-24T04:43:03.490Z,100.00
2023-05-24T04:45:33.167Z,100.00
2023-05-24T04:48:02.612Z,100.00
2023-05-24T04:50:31.103Z,100.00
2023-05-24T04:52:59.605Z,100.00
2023-05-24T04:55:27.585Z,100.00
2023-05-24T04:57:58.212Z,100.00
2023-05-24T05:00:28.453Z,100.00
2023-05-24T05:02:57.182Z,100.00
2023-05-24T05:05:27.307Z,100.00
2023-05-24T05:07:55.393Z,100.00
2023-05-24T05:10:24.754Z,100.00
2023-05-24T05:12:53.080Z,100.00
2023-05-24T05:15:24.859Z,100.00
2023-05-24T05:17:53.205Z,100.00
2023-05-24T05:20:21.357Z,100.00
2023-05-24T05:22:51.006Z,100.00
2023-05-24T05:25:19.483Z,100.00
2023-05-24T05:27:47.490Z,100.00
2023-05-24T05:30:16.525Z,100.00
2023-05-24T05:32:45.046Z,100.00
2023-05-24T05:35:14.378Z,100.00
2023-05-24T05:37:42.993Z,100.00
2023-05-24T05:40:14.161Z,100.00
2023-05-24T05:42:49.218Z,100.00
2023-05-24T05:45:17.459Z,100.00
2023-05-24T05:47:45.777Z,100.00
2023-05-24T05:50:14.080Z,100.00
2023-05-24T05:52:45.159Z,100.00
2023-05-24T05:55:15.006Z,100.00
2023-05-24T05:57:45.694Z,100.00
2023-05-24T06:00:15.521Z,100.00
2023-05-24T06:02:43.812Z,100.00
2023-05-24T06:05:15.351Z,100.00
2023-05-24T06:07:47.991Z,100.00
2023-05-24T06:10:18.520Z,100.00
2023-05-24T06:12:51.299Z,100.00
2023-05-24T06:15:22.927Z,100.00
2023-05-24T06:17:55.624Z,100.00
2023-05-24T06:20:25.816Z,100.00
2023-05-24T06:22:55.390Z,100.00
2023-05-24T06:25:25.393Z,100.00
2023-05-24T06:27:54.319Z,100.00
2023-05-24T06:30:23.715Z,100.00
2023-05-24T06:32:55.192Z,100.00
2023-05-24T06:35:24.314Z,100.00
2023-05-24T06:37:59.106Z,100.00
2023-05-24T06:40:28.805Z,100.00
2023-05-24T06:43:00.942Z,100.00
2023-05-24T06:45:29.258Z,100.00
2023-05-24T06:47:57.198Z,100.00
2023-05-24T06:50:26.361Z,100.00
2023-05-24T06:52:56.585Z,100.00
2023-05-24T06:55:26.552Z,100.00
2023-05-24T06:57:57.976Z,100.00
2023-05-24T07:00:27.932Z,100.00
2023-05-24T07:02:58.992Z,100.00
2023-05-24T07:05:29.304Z,100.00
2023-05-24T07:08:12.957Z,100.00
2023-05-24T07:10:41.817Z,100.00
2023-05-24T07:13:13.461Z,100.00
2023-05-24T07:15:43.423Z,100.00
2023-05-24T07:18:13.344Z,100.00
2023-05-24T07:20:42.999Z,100.00
2023-05-24T07:23:12.174Z,100.00
2023-05-24T07:25:40.608Z,100.00
2023-05-24T07:28:09.834Z,100.00
2023-05-24T07:30:41.731Z,100.00
2023-05-24T07:33:09.768Z,100.00
2023-05-24T07:35:38.567Z,100.00
2023-05-24T07:38:08.339Z,100.00
2023-05-24T07:40:43.450Z,100.00
2023-05-24T07:43:11.928Z,100.00
2023-05-24T07:45:43.103Z,100.00
2023-05-24T07:48:12.392Z,100.00
2023-05-24T07:50:48.601Z,100.00
2023-05-24T07:53:17.368Z,100.00
2023-05-24T07:55:48.797Z,100.00
2023-05-24T07:58:20.632Z,100.00
2023-05-24T08:00:50.634Z,100.00
2023-05-24T08:03:21.355Z,100.00
2023-05-24T08:05:54.274Z,100.00
2023-05-24T08:08:24.365Z,100.00
2023-05-24T08:10:54.247Z,100.00
2023-05-24T08:13:22.856Z,100.00
2023-05-24T08:15:52.657Z,100.00
2023-05-24T08:18:23.185Z,100.00
2023-05-24T08:20:58.203Z,100.00
2023-05-24T08:23:26.942Z,100.00
2023-05-24T08:25:55.896Z,100.00
2023-05-24T08:28:24.859Z,100.00
2023-05-24T08:30:55.672Z,100.00
2023-05-24T08:33:29.169Z,100.00
2023-05-24T08:35:58.418Z,100.00
2023-05-24T08:38:28.818Z,100.00
2023-05-24T08:41:01.780Z,100.00
2023-05-24T08:43:35.954Z,100.00
2023-05-24T08:46:08.724Z,100.00
2023-05-24T08:48:48.566Z,100.00
2023-05-24T08:51:19.111Z,100.00
2023-05-24T08:53:52.098Z,100.00
2023-05-24T08:56:27.792Z,100.00
2023-05-24T08:58:57.579Z,100.00
2023-05-24T09:01:30.616Z,100.00
2023-05-24T09:04:01.967Z,97.60
2023-05-24T09:06:31.233Z,100.00
2023-05-24T09:09:02.014Z,100.00
2023-05-24T09:11:34.183Z,100.00
2023-05-24T09:14:04.500Z,94.01
2023-05-24T09:16:40.386Z,91.49
2023-05-24T09:19:10.072Z,95.21
2023-05-24T09:21:38.920Z,97.33
2023-05-24T09:24:09.929Z,97.20
2023-05-24T09:26:40.142Z,98.59
2023-05-24T09:29:13.381Z,97.06
2023-05-24T09:31:46.803Z,100.00
2023-05-24T09:34:17.835Z,98.95
2023-05-24T09:36:50.189Z,100.00
2023-05-24T09:39:23.296Z,99.23
2023-05-24T09:42:00.967Z,100.00
2023-05-24T09:44:33.345Z,100.00
2023-05-24T09:47:10.135Z,94.22
2023-05-24T09:49:39.405Z,93.45
2023-05-24T09:52:15.710Z,93.17
2023-05-24T09:54:46.097Z,94.43
2023-05-24T09:57:20.597Z,93.85
2023-05-24T09:59:49.248Z,93.14
2023-05-24T10:02:20.464Z,93.47
2023-05-24T10:04:49.810Z,90.51
2023-05-24T10:07:22.450Z,94.51
2023-05-24T10:09:52.958Z,89.44
2023-05-24T10:12:25.954Z,84.34
2023-05-24T10:14:58.462Z,88.22
2023-05-24T10:17:32.509Z,89.85
2023-05-24T10:20:06.993Z,86.51
2023-05-24T10:22:43.546Z,89.73
2023-05-24T10:25:19.882Z,85.47
2023-05-24T10:27:52.890Z,86.75
2023-05-24T10:30:28.638Z,80.99
2023-05-24T10:33:00.616Z,85.23
2023-05-24T10:35:30.485Z,87.94
2023-05-24T10:38:07.354Z,86.62
2023-05-24T10:40:41.928Z,85.81
2023-05-24T10:43:12.913Z,79.24
2023-05-24T10:45:42.016Z,84.11
2023-05-24T10:48:37.490Z,86.24
2023-05-24T10:51:35.768Z,79.02
2023-05-24T10:54:15.755Z,81.09
2023-05-24T10:56:48.529Z,84.04
2023-05-24T10:59:33.003Z,80.57
2023-05-24T11:02:03.457Z,76.84
2023-05-24T11:04:35.559Z,82.27
2023-05-24T11:07:09.653Z,80.20
2023-05-24T11:09:46.547Z,78.93
2023-05-24T11:12:21.009Z,74.83
2023-05-24T11:14:59.596Z,74.18
2023-05-24T11:17:31.219Z,72.85
2023-05-24T11:20:05.423Z,73.81
2023-05-24T11:22:34.809Z,78.26
2023-05-24T11:25:06.486Z,74.58
2023-05-24T11:27:37.968Z,76.87
2023-05-24T11:30:08.150Z,79.67
2023-05-24T11:32:41.067Z,73.15
2023-05-24T11:35:13.740Z,66.98
2023-05-24T11:37:46.784Z,70.10
2023-05-24T11:40:20.301Z,69.11
2023-05-24T11:42:51.595Z,70.66
2023-05-24T11:45:21.570Z,67.76
2023-05-24T11:47:50.426Z,65.79
2023-05-24T11:50:26.972Z,62.62
2023-05-24T11:53:04.234Z,62.56
2023-05-24T11:55:33.544Z,59.31
2023-05-24T11:58:07.371Z,61.84
2023-05-24T12:00:39.601Z,58.98
2023-05-24T12:03:10.360Z,61.78
2023-05-24T12:05:43.743Z,60.55
2023-05-24T12:08:15.515Z,58.56
2023-05-24T12:10:46.933Z,59.15
2023-05-24T12:13:24.214Z,58.21
2023-05-24T12:15:55.838Z,62.94
2023-05-24T12:18:26.634Z,62.45
2023-05-24T12:20:56.734Z,58.35
2023-05-24T12:23:31.876Z,60.60
2023-05-24T12:26:01.679Z,63.00
2023-05-24T12:28:36.458Z,55.54
2023-05-24T12:31:05.950Z,54.64
2023-05-24T12:33:35.793Z,58.58
2023-05-24T12:36:07.708Z,56.18
2023-05-24T12:38:37.762Z,54.78
2023-05-24T12:41:13.638Z,54.87
2023-05-24T12:43:44.479Z,55.99
2023-05-24T12:46:16.710Z,57.62
2023-05-24T12:48:45.551Z,57.89
2023-05-24T12:51:16.665Z,61.27
2023-05-24T12:53:45.105Z,62.09
2023-05-24T12:56:13.941Z,66.53
2023-05-24T12:58:42.500Z,64.05
2023-05-24T13:01:12.308Z,66.72
2023-05-24T13:03:40.547Z,58.18
2023-05-24T13:06:12.329Z,56.47
2023-05-24T13:08:42.129Z,58.94
2023-05-24T13:11:11.828Z,57.38
2023-05-24T13:13:44.472Z,56.87
2023-05-24T13:16:16.341Z,54.97
2023-05-24T13:18:47.554Z,57.60
2023-05-24T13:21:15.551Z,55.70
2023-05-24T13:23:45.634Z,52.73
2023-05-24T13:26:14.651Z,50.64
2023-05-24T13:28:59.055Z,49.06
2023-05-24T13:31:34.740Z,50.08
2023-05-24T13:34:11.322Z,55.83
2023-05-24T13:36:44.088Z,54.63
2023-05-24T13:39:16.694Z,47.91
2023-05-24T13:41:51.386Z,45.14
2023-05-24T13:44:20.710Z,50.18
2023-05-24T13:46:50.366Z,48.83
2023-05-24T13:49:19.947Z,48.00
2023-05-24T13:51:50.119Z,45.46
2023-05-24T13:54:22.720Z,47.96
2023-05-24T13:56:50.908Z,42.49
2023-05-24T13:59:19.741Z,40.54
2023-05-24T14:01:56.606Z,42.49
2023-05-24T14:04:25.485Z,44.68
2023-05-24T14:06:54.018Z,42.49
2023-05-24T14:09:27.115Z,43.30
2023-05-24T14:11:57.963Z,43.89
2023-05-24T14:17:03.175Z,42.49
2023-05-24T14:19:33.646Z,40.33
2023-05-24T14:22:03.812Z,39.31
2023-05-24T14:24:38.215Z,38.99
2023-05-24T14:27:10.186Z,38.79
2023-05-24T14:29:38.624Z,39.48
2023-05-24T14:32:06.923Z,40.86
2023-05-24T14:34:38.687Z,41.96
2023-05-24T14:37:07.687Z,40.14
2023-05-24T14:39:46.675Z,38.97
2023-05-24T14:42:15.499Z,39.12
2023-05-24T14:44:46.346Z,38.80
2023-05-24T14:47:16.929Z,37.87
2023-05-24T14:49:46.150Z,37.89
2023-05-24T14:52:18.331Z,39.53
2023-05-24T14:54:48.294Z,38.66
2023-05-24T14:57:16.966Z,40.16
2023-05-24T14:59:47.101Z,39.91
2023-05-24T15:02:16.229Z,41.15
2023-05-24T15:04:44.929Z,40.89
2023-05-24T15:07:15.458Z,41.11
2023-05-24T15:09:44.355Z,42.10
2023-05-24T15:12:17.051Z,43.56
2023-05-24T15:14:50.070Z,44.06
2023-05-24T15:17:21.806Z,45.30
2023-05-24T15:19:54.570Z,44.24
2023-05-24T15:22:23.852Z,44.69
2023-05-24T15:24:58.615Z,44.02
2023-05-24T15:27:31.862Z,45.70
2023-05-24T15:30:00.435Z,43.81
2023-05-24T15:32:33.006Z,45.43
2023-05-24T15:35:03.222Z,44.28
2023-05-24T15:37:35.441Z,45.14
2023-05-24T15:40:07.812Z,47.29
2023-05-24T15:42:37.378Z,46.01
2023-05-24T15:45:06.538Z,46.27
2023-05-24T15:47:39.584Z,46.32
2023-05-24T15:50:09.902Z,45.75
2023-05-24T15:52:38.003Z,45.47
2023-05-24T15:55:09.821Z,45.91
2023-05-24T15:57:42.818Z,47.49
2023-05-24T16:00:13.573Z,47.47
2023-05-24T16:02:43.572Z,46.99
2023-05-24T16:05:13.306Z,46.56
2023-05-24T16:07:45.802Z,48.41
2023-05-24T16:10:16.829Z,47.39
2023-05-24T16:12:46.916Z,46.34
2023-05-24T16:15:16.214Z,45.94
2023-05-24T16:17:47.692Z,46.95
2023-05-24T16:20:16.075Z,47.71
2023-05-24T16:22:49.653Z,48.17
2023-05-24T16:25:19.877Z,48.43
2023-05-24T16:27:52.251Z,49.41
2023-05-24T16:30:29.805Z,50.89
2023-05-24T16:33:00.537Z,49.83
2023-05-24T16:35:31.090Z,51.67
2023-05-24T16:37:59.292Z,52.47
2023-05-24T16:40:28.532Z,52.17
2023-05-24T16:43:03.818Z,53.80
2023-05-24T16:45:32.000Z,51.67
2023-05-24T16:48:02.457Z,52.99
2023-05-24T16:50:30.645Z,52.20
2023-05-24T16:52:58.929Z,50.36
2023-05-24T16:55:38.658Z,51.03
2023-05-24T16:58:10.670Z,52.04
2023-05-24T17:00:40.607Z,52.02
2023-05-24T17:03:09.723Z,53.88
2023-05-24T17:06:05.334Z,55.02
2023-05-24T17:08:35.868Z,54.19
2023-05-24T17:11:04.786Z,54.86
2023-05-24T17:13:36.589Z,55.23
2023-05-24T17:16:11.766Z,53.84
2023-05-24T17:18:43.279Z,54.18
2023-05-24T17:21:12.752Z,55.76
2023-05-24T17:23:41.445Z,56.86
2023-05-24T17:26:09.992Z,58.53
2023-05-24T17:28:46.137Z,55.36
2023-05-24T17:31:16.398Z,55.35
2023-05-24T17:33:49.723Z,56.07
2023-05-24T17:36:20.179Z,57.19
2023-05-24T17:38:48.059Z,57.68
2023-05-24T17:41:19.111Z,63.32
2023-05-24T17:43:52.962Z,62.60
2023-05-24T17:46:22.369Z,64.51
2023-05-24T17:48:51.762Z,65.05
2023-05-24T17:51:20.709Z,66.33
2023-05-24T17:53:52.748Z,62.44
2023-05-24T17:56:25.910Z,60.76
2023-05-24T17:58:57.980Z,62.30
2023-05-24T18:01:28.046Z,61.81
2023-05-24T18:03:56.078Z,62.94
2023-05-24T18:06:29.556Z,64.28
2023-05-24T18:08:57.972Z,65.43
2023-05-24T18:11:26.343Z,65.52
2023-05-24T18:14:00.666Z,67.18
2023-05-24T18:16:28.986Z,66.29
2023-05-24T18:18:57.127Z,65.13
2023-05-24T18:21:27.576Z,64.65
2023-05-24T18:23:55.495Z,64.87
2023-05-24T18:26:25.568Z,65.79
2023-05-24T18:28:58.464Z,68.87
2023-05-24T18:31:30.906Z,69.26
2023-05-24T18:34:03.394Z,67.03
2023-05-24T18:36:33.891Z,67.44
2023-05-24T18:39:07.896Z,68.55
2023-05-24T18:41:37.014Z,70.83
2023-05-24T18:44:07.042Z,72.19
2023-05-24T18:46:36.491Z,74.42
2023-05-24T18:49:06.780Z,74.97
2023-05-24T18:51:37.519Z,77.15
2023-05-24T18:54:06.086Z,79.66
2023-05-24T18:56:34.889Z,81.11
2023-05-24T18:59:02.912Z,82.67
2023-05-24T19:01:36.500Z,82.18
2023-05-24T19:04:09.310Z,83.80
2023-05-24T19:06:39.257Z,83.99
2023-05-24T19:09:07.906Z,85.58
2023-05-24T19:11:36.408Z,86.01
2023-05-24T19:14:07.351Z,88.37
2023-05-24T19:16:39.004Z,89.40
2023-05-24T19:19:07.322Z,90.89
2023-05-24T19:21:36.669Z,93.56
2023-05-24T19:24:06.690Z,94.17
2023-05-24T19:26:35.635Z,96.60
2023-05-24T19:29:04.937Z,97.66
2023-05-24T19:31:36.208Z,99.83
2023-05-24T19:34:05.628Z,100.00
2023-05-24T19:36:36.331Z,100.00
2023-05-24T19:39:08.707Z,100.00
2023-05-24T19:41:37.342Z,100.00
2023-05-24T19:44:05.679Z,100.00
2023-05-24T19:46:37.000Z,100.00
2023-05-24T19:49:08.433Z,100.00
2023-05-24T19:51:39.660Z,100.00
2023-05-24T19:54:09.442Z,100.00
2023-05-24T19:56:39.068Z,100.00
2023-05-24T19:59:11.872Z,100.00
2023-05-24T20:01:42.493Z,100.00
2023-05-24T20:04:13.834Z,100.00
2023-05-24T20:06:43.421Z,100.00
2023-05-24T20:09:12.849Z,100.00
2023-05-24T20:11:44.665Z,100.00
2023-05-24T20:14:16.240Z,100.00
2023-05-24T20:16:48.381Z,100.00
2023-05-24T20:19:19.652Z,100.00
2023-05-24T20:21:47.869Z,100.00
2023-05-24T20:24:16.762Z,100.00
2023-05-24T20:26:45.215Z,100.00
2023-05-24T20:29:13.644Z,100.00
2023-05-24T20:31:42.627Z,100.00
2023-05-24T20:34:14.829Z,100.00
2023-05-24T20:36:50.151Z,100.00
2023-05-24T20:39:19.713Z,100.00
2023-05-24T20:41:48.770Z,100.00
2023-05-24T20:44:18.420Z,100.00
2023-05-24T20:46:48.642Z,100.00
2023-05-24T20:49:18.510Z,100.00
2023-05-24T20:51:48.364Z,100.00
2023-05-24T20:54:16.953Z,100.00
2023-05-24T20:56:47.464Z,100.00
2023-05-24T20:59:19.583Z,100.00
2023-05-24T21:01:47.567Z,100.00
2023-05-24T21:04:16.587Z,100.00
2023-05-24T21:06:49.345Z,100.00
2023-05-24T21:09:18.902Z,100.00
2023-05-24T21:11:49.299Z,100.00
2023-05-24T21:14:19.814Z,100.00
2023-05-24T21:16:53.486Z,100.00
2023-05-24T21:19:22.495Z,100.00
2023-05-24T21:21:54.106Z,100.00
2023-05-24T21:24:22.747Z,100.00
2023-05-24T21:26:51.293Z,100.00
2023-05-24T21:29:22.076Z,100.00
2023-05-24T21:31:50.052Z,100.00
2023-05-24T21:34:18.239Z,100.00
2023-05-24T21:36:48.906Z,100.00
2023-05-24T21:39:19.112Z,100.00
2023-05-24T21:41:50.150Z,100.00
2023-05-24T21:44:21.065Z,100.00
2023-05-24T21:46:49.661Z,100.00
2023-05-24T21:49:21.450Z,100.00
2023-05-24T21:51:50.158Z,100.00
2023-05-24T21:54:19.990Z,100.00
2023-05-24T21:56:48.578Z,100.00
2023-05-24T21:59:16.812Z,100.00
2023-05-24T22:01:45.988Z,100.00
2023-05-24T22:04:17.321Z,100.00
2023-05-24T22:06:54.190Z,100.00
2023-05-24T22:09:27.345Z,100.00
2023-05-24T22:11:57.278Z,100.00
2023-05-24T22:14:28.225Z,100.00
2023-05-24T22:16:57.276Z,100.00
2023-05-24T22:19:38.786Z,100.00
2023-05-24T22:22:08.398Z,100.00
2023-05-24T22:24:43.276Z,100.00
2023-05-24T22:27:13.847Z,100.00
2023-05-24T22:29:42.100Z,100.00
2023-05-24T22:32:11.805Z,100.00
2023-05-24T22:34:41.465Z,100.00
2023-05-24T22:37:11.658Z,100.00
2023-05-24T22:39:45.130Z,100.00
2023-05-24T22:42:14.091Z,100.00
2023-05-24T22:44:43.882Z,100.00
2023-05-24T22:47:14.095Z,100.00
2023-05-24T22:49:45.174Z,100.00
2023-05-24T22:52:13.359Z,100.00
2023-05-24T22:54:44.767Z,100.00
2023-05-24T22:57:14.071Z,100.00
2023-05-24T22:59:46.871Z,100.00
2023-05-24T23:02:18.847Z,100.00
2023-05-24T23:04:51.346Z,100.00
2023-05-24T23:07:21.800Z,100.00
2023-05-24T23:09:54.753Z,100.00
2023-05-24T23:12:23.903Z,100.00
2023-05-24T23:14:54.644Z,100.00
2023-05-24T23:17:23.765Z,100.00
2023-05-24T23:19:52.261Z,100.00
2023-05-24T23:22:24.007Z,100.00
2023-05-24T23:25:00.588Z,100.00
2023-05-24T23:27:29.179Z,100.00
2023-05-24T23:29:59.960Z,100.00
2023-05-24T23:32:28.252Z,100.00
2023-05-24T23:34:58.003Z,100.00
2023-05-24T23:37:28.636Z,100.00
2023-05-24T23:40:02.263Z,100.00
2023-05-24T23:42:33.290Z,100.00
2023-05-24T23:45:15.169Z,100.00
2023-05-24T23:47:44.523Z,100.00
2023-05-24T23:50:17.371Z,100.00
2023-05-24T23:52:50.085Z,100.00
2023-05-24T23:55:23.567Z,100.00
2023-05-24T23:57:53.971Z,100.00
